createdAt,value
2019-02-06T00:00:12.962Z,4.40
2019-02-06T00:02:39.704Z,4.40
2019-02-06T00:05:13.923Z,4.50
2019-02-06T00:07:35.007Z,4.50
2019-02-06T00:10:02.253Z,4.50
2019-02-06T00:12:28.932Z,4.50
2019-02-06T00:14:55.622Z,4.60
2019-02-06T00:17:22.592Z,4.60
2019-02-06T00:19:49.281Z,4.50
2019-02-06T00:22:15.965Z,4.50
2019-02-06T00:24:42.706Z,4.60
2019-02-06T00:27:09.418Z,4.50
2019-02-06T00:29:36.439Z,4.40
2019-02-06T00:32:04.136Z,4.50
2019-02-06T00:34:30.896Z,4.40
2019-02-06T00:36:57.634Z,4.40
2019-02-06T00:39:24.418Z,4.50
2019-02-06T00:41:51.135Z,4.50
2019-02-06T00:44:17.828Z,4.50
2019-02-06T00:46:44.585Z,4.50
2019-02-06T00:49:11.478Z,4.60
2019-02-06T00:51:38.197Z,4.50
2019-02-06T00:54:04.986Z,4.50
2019-02-06T00:56:31.690Z,4.50
2019-02-06T00:58:58.924Z,4.50
2019-02-06T01:01:25.783Z,4.50
2019-02-06T01:03:52.498Z,4.50
2019-02-06T01:06:19.179Z,4.50
2019-02-06T01:08:45.920Z,4.50
2019-02-06T01:11:12.616Z,4.40
2019-02-06T01:13:39.361Z,4.30
2019-02-06T01:16:06.107Z,4.20
2019-02-06T01:18:33.700Z,4.00
2019-02-06T01:21:00.392Z,4.00
2019-02-06T01:23:27.287Z,4.10
2019-02-06T01:25:54.007Z,4.00
2019-02-06T01:28:21.056Z,3.90
2019-02-06T01:30:49.616Z,3.90
2019-02-06T01:33:16.278Z,3.90
2019-02-06T01:35:49.933Z,4.00
2019-02-06T01:38:11.520Z,4.10
2019-02-06T01:40:38.208Z,4.20
2019-02-06T01:43:04.902Z,4.20
2019-02-06T01:45:31.650Z,4.20
2019-02-06T01:47:58.653Z,4.30
2019-02-06T01:50:25.349Z,4.30
2019-02-06T01:52:52.089Z,4.20
2019-02-06T01:55:18.867Z,4.20
2019-02-06T01:57:45.590Z,4.20
2019-02-06T02:00:14.615Z,4.10
2019-02-06T02:02:41.348Z,4.10
2019-02-06T02:05:08.066Z,4.20
2019-02-06T02:07:35.012Z,4.20
2019-02-06T02:10:01.773Z,4.30
2019-02-06T02:12:28.456Z,4.30
2019-02-06T02:14:55.211Z,4.30
2019-02-06T02:17:21.900Z,4.30
2019-02-06T02:19:49.495Z,4.40
2019-02-06T02:22:16.262Z,4.30
2019-02-06T02:24:43.383Z,4.40
2019-02-06T02:27:10.083Z,4.40
2019-02-06T02:29:36.857Z,4.30
2019-02-06T02:32:03.578Z,4.20
2019-02-06T02:34:30.309Z,4.30
2019-02-06T02:36:57.102Z,4.30
2019-02-06T02:39:23.811Z,4.30
2019-02-06T02:41:50.531Z,4.30
2019-02-06T02:44:17.680Z,4.30
2019-02-06T02:46:44.367Z,4.30
2019-02-06T02:49:11.082Z,4.30
2019-02-06T02:51:38.011Z,4.40
2019-02-06T02:54:04.699Z,4.40
2019-02-06T02:56:31.393Z,4.40
2019-02-06T02:58:58.128Z,4.40
2019-02-06T03:01:38.003Z,4.50
2019-02-06T03:04:06.570Z,4.50
2019-02-06T03:06:33.287Z,4.40
2019-02-06T03:08:59.989Z,4.40
2019-02-06T03:11:26.776Z,4.40
2019-02-06T03:13:53.442Z,4.50
2019-02-06T03:16:20.227Z,4.50
2019-02-06T03:18:47.447Z,4.50
2019-02-06T03:21:15.103Z,4.50
2019-02-06T03:23:41.795Z,4.50
2019-02-06T03:26:08.562Z,4.40
2019-02-06T03:28:35.264Z,4.30
2019-02-06T03:31:02.004Z,4.30
2019-02-06T03:33:28.789Z,4.40
2019-02-06T03:35:55.460Z,4.40
2019-02-06T03:38:22.487Z,4.50
2019-02-06T03:40:49.258Z,4.50
2019-02-06T03:43:15.954Z,4.40
2019-02-06T03:45:42.631Z,4.40
2019-02-06T03:48:09.401Z,4.40
2019-02-06T03:50:36.132Z,4.40
2019-02-06T03:53:02.829Z,4.50
2019-02-06T03:55:29.601Z,4.40
2019-02-06T03:57:56.602Z,4.50
2019-02-06T04:00:23.303Z,4.50
2019-02-06T04:02:50.016Z,4.40
2019-02-06T04:05:16.738Z,4.40
2019-02-06T04:07:43.396Z,4.50
2019-02-06T04:10:14.741Z,4.40
2019-02-06T04:12:41.453Z,4.20
2019-02-06T04:15:08.647Z,4.00
2019-02-06T04:17:35.407Z,3.90
2019-02-06T04:20:02.751Z,3.80
2019-02-06T04:22:30.325Z,3.80
2019-02-06T04:24:57.120Z,3.70
2019-02-06T04:27:23.833Z,3.60
2019-02-06T04:29:50.568Z,3.60
2019-02-06T04:32:17.331Z,3.60
2019-02-06T04:34:44.294Z,3.50
2019-02-06T04:37:10.994Z,3.50
2019-02-06T04:39:37.798Z,3.50
2019-02-06T04:42:04.484Z,3.60
2019-02-06T04:44:31.174Z,3.60
2019-02-06T04:46:57.894Z,3.60
2019-02-06T04:49:24.605Z,3.60
2019-02-06T04:51:51.289Z,3.50
2019-02-06T04:54:18.493Z,3.50
2019-02-06T04:56:45.203Z,3.50
2019-02-06T04:59:12.091Z,3.60
2019-02-06T05:01:38.863Z,3.70
2019-02-06T05:04:05.590Z,3.60
2019-02-06T05:06:32.313Z,3.60
2019-02-06T05:08:59.097Z,3.60
2019-02-06T05:11:25.799Z,3.60
2019-02-06T05:13:52.976Z,3.60
2019-02-06T05:16:19.727Z,3.70
2019-02-06T05:18:46.406Z,3.60
2019-02-06T05:21:13.204Z,3.70
2019-02-06T05:23:40.125Z,3.60
2019-02-06T05:26:06.865Z,3.60
2019-02-06T05:28:33.576Z,3.60
2019-02-06T05:31:00.496Z,3.60
2019-02-06T05:33:27.583Z,3.80
2019-02-06T05:35:54.336Z,3.90
2019-02-06T05:38:21.196Z,3.80
2019-02-06T05:40:48.086Z,3.70
2019-02-06T05:43:15.037Z,3.70
2019-02-06T05:45:41.795Z,3.60
2019-02-06T05:48:08.584Z,3.60
2019-02-06T05:50:35.288Z,3.70
2019-02-06T05:53:02.082Z,3.80
2019-02-06T05:55:28.818Z,3.70
2019-02-06T05:57:55.565Z,3.70
2019-02-06T06:00:26.002Z,3.70
2019-02-06T06:02:52.667Z,3.90
2019-02-06T06:05:19.332Z,3.90
2019-02-06T06:07:46.192Z,4.00
2019-02-06T06:10:17.242Z,4.10
2019-02-06T06:12:44.331Z,4.20
2019-02-06T06:15:12.978Z,4.30
2019-02-06T06:17:39.673Z,4.20
2019-02-06T06:20:08.970Z,4.20
2019-02-06T06:22:36.217Z,4.10
2019-02-06T06:25:06.406Z,4.10
2019-02-06T06:27:33.185Z,4.20
2019-02-06T06:30:06.559Z,4.20
2019-02-06T06:32:31.829Z,4.20
2019-02-06T06:34:57.466Z,4.20
2019-02-06T06:37:24.196Z,4.10
2019-02-06T06:39:50.891Z,3.90
2019-02-06T06:42:17.606Z,4.00
2019-02-06T06:44:44.374Z,4.00
2019-02-06T06:47:11.101Z,3.90
2019-02-06T06:49:38.188Z,4.00
2019-02-06T06:52:04.953Z,4.10
2019-02-06T06:54:31.681Z,4.00
2019-02-06T06:56:58.374Z,3.90
2019-02-06T06:59:25.158Z,3.90
2019-02-06T07:01:51.914Z,3.90
2019-02-06T07:04:18.626Z,4.00
2019-02-06T07:06:46.450Z,4.10
2019-02-06T07:09:13.485Z,4.10
2019-02-06T07:11:40.165Z,4.10
2019-02-06T07:14:06.982Z,4.20
2019-02-06T07:16:33.681Z,4.30
2019-02-06T07:19:00.474Z,4.30
2019-02-06T07:21:27.220Z,4.40
2019-02-06T07:23:53.918Z,4.30
2019-02-06T07:26:20.699Z,4.20
2019-02-06T07:28:47.434Z,4.10
2019-02-06T07:31:14.177Z,4.10
2019-02-06T07:33:41.053Z,4.30
2019-02-06T07:36:07.854Z,4.30
2019-02-06T07:38:34.569Z,4.30
2019-02-06T07:41:01.358Z,4.30
2019-02-06T07:43:28.108Z,4.30
2019-02-06T07:45:54.830Z,4.30
2019-02-06T07:48:21.712Z,4.20
2019-02-06T07:50:48.516Z,4.10
2019-02-06T07:53:15.377Z,4.20
2019-02-06T07:55:42.120Z,4.30
2019-02-06T07:58:08.839Z,4.40
2019-02-06T08:00:35.537Z,4.40
2019-02-06T08:03:02.370Z,4.40
2019-02-06T08:05:29.095Z,4.60
2019-02-06T08:07:56.152Z,4.80
2019-02-06T08:10:25.924Z,4.80
2019-02-06T08:12:52.699Z,5.00
2019-02-06T08:15:19.408Z,5.10
2019-02-06T08:17:46.109Z,5.20
2019-02-06T08:20:18.845Z,5.30
2019-02-06T08:22:45.696Z,5.40
2019-02-06T08:25:17.059Z,5.30
2019-02-06T08:27:43.859Z,5.30
2019-02-06T08:30:22.581Z,5.50
2019-02-06T08:32:49.393Z,5.60
2019-02-06T08:35:16.107Z,5.60
2019-02-06T08:37:42.935Z,5.80
2019-02-06T08:40:12.722Z,5.90
2019-02-06T08:42:39.458Z,5.80
2019-02-06T08:45:12.148Z,5.80
2019-02-06T08:47:39.174Z,5.80
2019-02-06T08:50:15.698Z,5.80
2019-02-06T08:52:42.763Z,5.90
2019-02-06T08:55:15.493Z,6.00
2019-02-06T08:57:42.162Z,6.10
2019-02-06T09:00:12.698Z,6.20
2019-02-06T09:02:39.408Z,6.20
2019-02-06T09:05:07.825Z,5.90
2019-02-06T09:07:34.550Z,6.10
2019-02-06T09:10:01.550Z,6.50
2019-02-06T09:12:28.233Z,6.80
2019-02-06T09:14:54.977Z,7.00
2019-02-06T09:17:21.677Z,7.20
2019-02-06T09:19:48.399Z,7.20
2019-02-06T09:22:15.255Z,7.20
2019-02-06T09:24:41.996Z,7.40
2019-02-06T09:27:08.696Z,7.30
2019-02-06T09:29:36.018Z,7.20
2019-02-06T09:32:02.792Z,7.20
2019-02-06T09:34:29.633Z,7.40
2019-02-06T09:36:56.432Z,7.40
2019-02-06T09:39:23.165Z,7.50
2019-02-06T09:41:49.856Z,7.60
2019-02-06T09:44:16.755Z,7.60
2019-02-06T09:46:43.598Z,7.50
2019-02-06T09:49:10.852Z,7.60
2019-02-06T09:51:37.653Z,7.60
2019-02-06T09:54:04.337Z,7.50
2019-02-06T09:56:31.024Z,7.20
2019-02-06T09:58:57.825Z,7.00
2019-02-06T10:01:24.555Z,7.10
2019-02-06T10:03:51.250Z,7.20
2019-02-06T10:06:18.027Z,7.20
2019-02-06T10:08:45.262Z,7.30
2019-02-06T10:11:11.933Z,7.40
2019-02-06T10:13:38.670Z,7.50
2019-02-06T10:16:05.368Z,7.70
2019-02-06T10:18:32.106Z,7.60
2019-02-06T10:20:58.872Z,7.10
2019-02-06T10:23:25.647Z,6.70
2019-02-06T10:25:53.943Z,6.30
2019-02-06T10:28:20.944Z,6.30
2019-02-06T10:30:48.358Z,6.00
2019-02-06T10:33:15.158Z,6.00
2019-02-06T10:35:41.972Z,6.10
2019-02-06T10:38:09.051Z,6.10
2019-02-06T10:40:35.995Z,6.00
2019-02-06T10:43:02.839Z,5.90
2019-02-06T10:45:29.680Z,6.00
2019-02-06T10:47:56.831Z,6.10
2019-02-06T10:50:30.024Z,6.10
2019-02-06T10:52:56.969Z,6.20
2019-02-06T10:55:23.761Z,6.50
2019-02-06T10:57:50.519Z,6.90
2019-02-06T11:00:20.425Z,6.90
2019-02-06T11:02:47.134Z,7.00
2019-02-06T11:05:14.272Z,6.80
2019-02-06T11:07:40.966Z,6.70
2019-02-06T11:10:10.763Z,6.80
2019-02-06T11:12:37.727Z,6.70
2019-02-06T11:15:08.019Z,6.80
2019-02-06T11:17:34.766Z,6.90
2019-02-06T11:20:01.634Z,6.80
2019-02-06T11:22:28.651Z,6.80
2019-02-06T11:24:55.431Z,6.60
2019-02-06T11:27:22.179Z,6.30
2019-02-06T11:29:48.901Z,6.50
2019-02-06T11:32:15.738Z,6.40
2019-02-06T11:34:42.547Z,6.50
2019-02-06T11:37:09.242Z,6.60
2019-02-06T11:39:35.960Z,6.60
2019-02-06T11:42:03.012Z,6.60
2019-02-06T11:44:29.734Z,6.60
2019-02-06T11:46:56.451Z,6.80
2019-02-06T11:49:24.681Z,6.90
2019-02-06T11:51:51.398Z,7.00
2019-02-06T11:54:18.068Z,7.00
2019-02-06T11:56:44.800Z,7.10
2019-02-06T11:59:11.907Z,7.20
2019-02-06T12:01:39.402Z,7.20
2019-02-06T12:04:06.165Z,7.30
2019-02-06T12:06:32.835Z,7.50
2019-02-06T12:08:59.569Z,7.50
2019-02-06T12:11:26.295Z,7.60
2019-02-06T12:13:52.965Z,7.60
2019-02-06T12:16:19.799Z,7.60
2019-02-06T12:18:46.762Z,7.60
2019-02-06T12:21:13.465Z,7.70
2019-02-06T12:23:40.159Z,7.60
2019-02-06T12:26:06.920Z,7.50
2019-02-06T12:28:33.652Z,7.40
2019-02-06T12:31:00.488Z,7.40
2019-02-06T12:33:27.314Z,7.40
2019-02-06T12:35:54.038Z,7.40
2019-02-06T12:38:20.752Z,7.30
2019-02-06T12:40:47.842Z,7.10
2019-02-06T12:43:14.545Z,7.00
2019-02-06T12:45:41.297Z,7.10
2019-02-06T12:48:08.052Z,7.20
2019-02-06T12:50:34.814Z,7.30
2019-02-06T12:53:01.586Z,7.30
2019-02-06T12:55:34.017Z,7.20
2019-02-06T12:58:00.731Z,7.10
2019-02-06T13:00:32.411Z,6.80
2019-02-06T13:03:00.159Z,6.60
2019-02-06T13:05:29.097Z,6.50
2019-02-06T13:07:55.843Z,6.40
2019-02-06T13:10:33.344Z,6.30
2019-02-06T13:12:53.709Z,6.10
2019-02-06T13:15:20.471Z,6.00
2019-02-06T13:17:47.651Z,6.10
2019-02-06T13:20:17.259Z,6.20
2019-02-06T13:22:43.998Z,6.20
2019-02-06T13:25:11.802Z,6.10
2019-02-06T13:27:38.565Z,6.20
2019-02-06T13:30:11.900Z,6.30
2019-02-06T13:32:38.647Z,6.30
2019-02-06T13:35:09.328Z,6.10
2019-02-06T13:37:36.138Z,6.00
2019-02-06T13:40:06.070Z,5.90
2019-02-06T13:42:32.793Z,5.80
2019-02-06T13:44:59.478Z,5.90
2019-02-06T13:47:26.276Z,6.20
2019-02-06T13:49:53.018Z,6.30
2019-02-06T13:52:19.904Z,6.50
2019-02-06T13:54:46.690Z,6.60
2019-02-06T13:57:13.480Z,6.80
2019-02-06T13:59:40.372Z,6.90
2019-02-06T14:02:07.246Z,6.90
2019-02-06T14:04:34.263Z,6.90
2019-02-06T14:07:01.209Z,6.80
2019-02-06T14:09:28.088Z,6.90
2019-02-06T14:11:55.046Z,6.90
2019-02-06T14:14:21.737Z,6.90
2019-02-06T14:16:48.571Z,6.80
2019-02-06T14:19:15.422Z,6.70
2019-02-06T14:21:42.471Z,6.70
2019-02-06T14:24:12.958Z,6.60
2019-02-06T14:26:46.439Z,6.60
2019-02-06T14:29:19.953Z,6.60
2019-02-06T14:31:56.162Z,6.60
2019-02-06T14:34:48.119Z,6.60
2019-02-06T14:37:42.789Z,6.60
2019-02-06T14:40:22.231Z,6.60
2019-02-06T14:43:19.146Z,6.60
2019-02-06T14:45:58.969Z,6.70
2019-02-06T14:48:46.101Z,6.70
2019-02-06T14:51:39.599Z,6.60
2019-02-06T14:54:16.062Z,6.60
2019-02-06T14:56:52.538Z,6.60
2019-02-06T14:59:31.858Z,6.60
2019-02-06T15:02:28.481Z,6.60
2019-02-06T15:05:32.440Z,6.50
2019-02-06T15:08:17.829Z,6.50
2019-02-06T15:10:56.976Z,6.40
2019-02-06T15:13:36.577Z,6.40
2019-02-06T15:16:10.397Z,6.40
2019-02-06T15:18:57.661Z,6.40
2019-02-06T15:21:43.585Z,6.50
2019-02-06T15:24:33.336Z,6.50
2019-02-06T15:27:23.182Z,6.40
2019-02-06T15:30:03.296Z,6.30
2019-02-06T15:32:49.066Z,6.60
2019-02-06T15:35:37.356Z,7.00
2019-02-06T15:38:16.995Z,7.10
2019-02-06T15:40:59.553Z,6.90
2019-02-06T15:43:36.225Z,6.80
2019-02-06T15:49:20.088Z,6.60
2019-02-06T15:52:17.696Z,6.50
2019-02-06T15:54:57.062Z,6.40
2019-02-06T15:57:48.686Z,6.50
2019-02-06T16:00:19.051Z,6.40
2019-02-06T16:02:55.337Z,6.40
2019-02-06T16:05:46.293Z,6.30
2019-02-06T16:08:27.010Z,6.30
2019-02-06T16:11:15.718Z,6.20
2019-02-06T16:14:02.460Z,6.20
2019-02-06T16:16:55.921Z,6.30
2019-02-06T16:19:29.115Z,6.30
2019-02-06T16:22:33.348Z,6.20
2019-02-06T16:25:12.844Z,6.10
2019-02-06T16:27:46.604Z,6.30
2019-02-06T16:30:25.891Z,6.60
2019-02-06T16:33:02.137Z,7.00
2019-02-06T16:35:53.622Z,7.30
2019-02-06T16:38:27.158Z,7.30
2019-02-06T16:41:17.412Z,7.00
2019-02-06T16:44:02.994Z,6.80
2019-02-06T16:46:54.591Z,6.40
2019-02-06T16:49:37.183Z,6.30
2019-02-06T16:52:13.204Z,6.20
2019-02-06T16:55:01.540Z,6.20
2019-02-06T16:57:46.386Z,6.20
2019-02-06T17:00:33.284Z,6.20
2019-02-06T17:03:09.434Z,6.20
2019-02-06T17:05:49.282Z,6.20
2019-02-06T17:08:36.110Z,6.20
2019-02-06T17:11:12.340Z,6.20
2019-02-06T17:14:00.932Z,6.20
2019-02-06T17:16:37.877Z,6.20
2019-02-06T17:19:23.341Z,6.30
2019-02-06T17:21:53.688Z,6.30
2019-02-06T17:24:40.539Z,6.30
2019-02-06T17:27:10.892Z,6.30
2019-02-06T17:29:59.060Z,6.30
2019-02-06T17:32:47.525Z,6.20
2019-02-06T17:35:26.784Z,6.20
2019-02-06T17:38:10.363Z,6.20
2019-02-06T17:40:46.777Z,6.20
2019-02-06T17:43:19.862Z,6.20
2019-02-06T17:46:02.201Z,6.30
2019-02-06T17:48:42.448Z,6.30
2019-02-06T17:51:31.351Z,6.30
2019-02-06T17:54:07.664Z,6.30
2019-02-06T17:56:34.676Z,6.30
2019-02-06T17:59:01.396Z,6.30
2019-02-06T18:01:43.944Z,6.30
2019-02-06T18:04:10.613Z,6.20
2019-02-06T18:06:37.324Z,6.20
2019-02-06T18:09:07.732Z,6.20
2019-02-06T18:11:34.459Z,6.20
2019-02-06T18:14:01.184Z,6.20
2019-02-06T18:16:27.986Z,6.20
2019-02-06T18:18:54.853Z,6.20
2019-02-06T18:21:22.451Z,6.20
2019-02-06T18:23:49.268Z,6.30
2019-02-06T18:26:15.986Z,6.20
2019-02-06T18:28:42.708Z,6.20
2019-02-06T18:31:09.917Z,6.20
2019-02-06T18:33:36.768Z,6.20
2019-02-06T18:36:03.640Z,6.20
2019-02-06T18:38:32.149Z,6.20
2019-02-06T18:40:58.952Z,6.20
2019-02-06T18:43:25.919Z,6.20
2019-02-06T18:45:52.672Z,6.10
2019-02-06T18:48:20.238Z,6.10
2019-02-06T18:50:46.971Z,6.00
2019-02-06T18:53:14.239Z,6.00
2019-02-06T18:55:40.942Z,6.00
2019-02-06T18:58:07.736Z,6.00
2019-02-06T19:00:38.110Z,5.90
2019-02-06T19:03:08.529Z,5.80
2019-02-06T19:05:37.115Z,5.80
2019-02-06T19:08:04.487Z,5.80
2019-02-06T19:10:31.584Z,5.80
2019-02-06T19:12:58.377Z,5.70
2019-02-06T19:15:25.674Z,5.60
2019-02-06T19:17:52.401Z,5.60
2019-02-06T19:20:19.126Z,5.60
2019-02-06T19:22:45.897Z,5.60
2019-02-06T19:25:14.049Z,5.70
2019-02-06T19:27:40.763Z,5.60
2019-02-06T19:30:20.511Z,5.40
2019-02-06T19:32:47.210Z,5.40
2019-02-06T19:35:14.617Z,5.40
2019-02-06T19:37:41.542Z,5.30
2019-02-06T19:40:11.352Z,5.30
2019-02-06T19:42:38.036Z,5.30
2019-02-06T19:45:07.606Z,5.30
2019-02-06T19:47:34.312Z,5.20
2019-02-06T19:53:10.468Z,5.00
2019-02-06T19:55:37.269Z,5.00
2019-02-06T19:58:05.094Z,5.00
2019-02-06T20:00:32.965Z,5.00
2019-02-06T20:02:59.756Z,5.00
2019-02-06T20:05:26.766Z,5.00
2019-02-06T20:07:53.471Z,5.00
2019-02-06T20:10:26.296Z,5.00
2019-02-06T20:12:52.971Z,5.10
2019-02-06T20:15:19.668Z,5.20
2019-02-06T20:17:46.705Z,5.20
2019-02-06T20:20:24.726Z,5.20
2019-02-06T20:22:50.851Z,5.10
2019-02-06T20:25:17.559Z,5.10
2019-02-06T20:27:44.270Z,5.10
2019-02-06T20:30:30.732Z,5.00
2019-02-06T20:32:57.445Z,4.90
2019-02-06T20:35:24.574Z,4.90
2019-02-06T20:37:51.796Z,4.80
2019-02-06T20:40:21.629Z,4.80
2019-02-06T20:42:48.498Z,4.70
2019-02-06T20:45:15.256Z,4.60
2019-02-06T20:48:32.667Z,4.60
2019-02-06T20:53:42.781Z,4.50
2019-02-06T20:56:09.560Z,4.40
2019-02-06T20:58:36.327Z,4.50
2019-02-06T21:01:03.664Z,4.60
2019-02-06T21:03:30.693Z,4.70
2019-02-06T21:05:57.374Z,4.70
2019-02-06T21:08:27.581Z,4.70
2019-02-06T21:10:54.368Z,4.50
2019-02-06T21:13:21.067Z,4.40
2019-02-06T21:15:47.761Z,4.40
2019-02-06T21:18:14.587Z,4.50
2019-02-06T21:20:41.645Z,4.50
2019-02-06T21:23:08.321Z,4.60
2019-02-06T21:25:35.069Z,4.70
2019-02-06T21:28:01.835Z,4.80
2019-02-06T21:31:09.641Z,4.80
2019-02-06T21:33:34.834Z,4.70
2019-02-06T21:36:01.802Z,4.60
2019-02-06T21:38:28.501Z,4.50
2019-02-06T21:40:55.892Z,4.40
2019-02-06T21:43:22.739Z,4.30
2019-02-06T21:45:49.463Z,4.30
2019-02-06T21:48:16.715Z,4.30
2019-02-06T21:50:43.490Z,4.30
2019-02-06T21:53:10.243Z,4.30
2019-02-06T21:55:37.101Z,4.30
2019-02-06T21:58:03.927Z,4.30
2019-02-06T22:00:33.955Z,4.30
2019-02-06T22:03:00.687Z,4.40
2019-02-06T22:05:27.456Z,4.40
2019-02-06T22:07:54.188Z,4.50
2019-02-06T22:10:21.344Z,4.50
2019-02-06T22:12:48.151Z,4.50
2019-02-06T22:15:26.687Z,4.50
2019-02-06T22:17:53.696Z,4.50
2019-02-06T22:20:20.421Z,4.50
2019-02-06T22:22:47.128Z,4.50
2019-02-06T22:25:14.202Z,4.50
2019-02-06T22:27:40.934Z,4.50
2019-02-06T22:30:16.557Z,4.40
2019-02-06T22:32:43.245Z,4.30
2019-02-06T22:35:12.089Z,4.20
2019-02-06T22:37:58.720Z,4.20
2019-02-06T22:40:25.763Z,4.10
2019-02-06T22:42:56.423Z,4.10
2019-02-06T22:45:24.766Z,4.10
2019-02-06T22:48:06.288Z,4.10
2019-02-06T22:50:33.962Z,4.10
2019-02-06T22:53:03.772Z,4.00
2019-02-06T22:55:30.915Z,4.00
2019-02-06T22:57:57.779Z,4.00
2019-02-06T23:00:54.375Z,4.10
2019-02-06T23:03:27.530Z,4.10
2019-02-06T23:05:54.296Z,4.10
2019-02-06T23:08:21.258Z,4.20
2019-02-06T23:11:07.557Z,4.10
2019-02-06T23:13:29.828Z,4.10
2019-02-06T23:15:56.546Z,4.10
2019-02-06T23:18:23.253Z,4.20
2019-02-06T23:20:50.029Z,4.30
2019-02-06T23:23:16.844Z,4.30
2019-02-06T23:25:43.645Z,4.30
2019-02-06T23:28:10.853Z,4.40
2019-02-06T23:30:37.652Z,4.40
2019-02-06T23:33:04.366Z,4.50
2019-02-06T23:35:31.847Z,4.60
2019-02-06T23:37:58.582Z,4.60
2019-02-06T23:40:25.333Z,4.50
2019-02-06T23:42:52.073Z,4.40
2019-02-06T23:45:19.181Z,4.30
2019-02-06T23:47:45.879Z,4.20
2019-02-06T23:50:14.025Z,4.10
2019-02-06T23:52:40.827Z,4.20
2019-02-06T23:55:09.469Z,4.30
2019-02-06T23:57:44.908Z,4.40
